createdAt,value
2024-01-18T00:00:53.336Z,-5.80
2024-01-18T00:03:20.696Z,-5.80
2024-01-18T00:05:47.981Z,-5.80
2024-01-18T00:08:15.123Z,-5.80
2024-01-18T00:10:42.419Z,-5.80
2024-01-18T00:13:09.612Z,-5.80
2024-01-18T00:15:36.935Z,-5.80
2024-01-18T00:18:06.575Z,-5.70
2024-01-18T00:20:33.774Z,-5.80
2024-01-18T00:23:01.188Z,-5.70
2024-01-18T00:25:28.428Z,-5.70
2024-01-18T00:27:55.536Z,-5.70
2024-01-18T00:30:22.785Z,-5.70
2024-01-18T00:32:50.030Z,-5.70
2024-01-18T00:35:17.281Z,-5.70
2024-01-18T00:37:44.618Z,-5.70
2024-01-18T00:40:15.175Z,-5.70
2024-01-18T00:42:42.586Z,-5.70
2024-01-18T00:45:10.139Z,-5.70
2024-01-18T00:47:37.487Z,-5.70
2024-01-18T00:50:05.058Z,-5.60
2024-01-18T00:52:32.301Z,-5.70
2024-01-18T00:54:59.514Z,-5.60
2024-01-18T00:57:27.940Z,-5.70
2024-01-18T00:59:55.122Z,-5.70
2024-01-18T01:02:22.533Z,-5.70
2024-01-18T01:04:49.673Z,-5.70
2024-01-18T01:07:16.820Z,-5.60
2024-01-18T01:09:44.059Z,-5.60
2024-01-18T01:12:11.498Z,-5.60
2024-01-18T01:14:38.709Z,-5.70
2024-01-18T01:17:05.889Z,-5.60
2024-01-18T01:19:33.175Z,-5.60
2024-01-18T01:22:00.503Z,-5.60
2024-01-18T01:24:27.733Z,-5.60
2024-01-18T01:26:54.911Z,-5.60
2024-01-18T01:29:22.102Z,-5.50
2024-01-18T01:31:49.943Z,-5.50
2024-01-18T01:34:17.187Z,-5.50
2024-01-18T01:36:44.438Z,-5.50
2024-01-18T01:39:11.780Z,-5.50
2024-01-18T01:41:39.025Z,-5.50
2024-01-18T01:44:06.862Z,-5.50
2024-01-18T01:46:34.189Z,-5.50
2024-01-18T01:49:03.651Z,-5.40
2024-01-18T01:51:36.156Z,-5.40
2024-01-18T01:54:05.691Z,-5.40
2024-01-18T01:56:34.563Z,-5.40
2024-01-18T01:59:02.488Z,-5.40
2024-01-18T02:01:29.632Z,-5.40
2024-01-18T02:03:57.210Z,-5.40
2024-01-18T02:06:26.189Z,-5.40
2024-01-18T02:08:53.466Z,-5.40
2024-01-18T02:11:21.006Z,-5.40
2024-01-18T02:13:49.433Z,-5.40
2024-01-18T02:16:16.778Z,-5.40
2024-01-18T02:18:43.954Z,-5.40
2024-01-18T02:21:11.122Z,-5.40
2024-01-18T02:23:39.907Z,-5.40
2024-01-18T02:26:07.725Z,-5.40
2024-01-18T02:28:34.957Z,-5.40
2024-01-18T02:31:02.272Z,-5.40
2024-01-18T02:33:29.602Z,-5.40
2024-01-18T02:35:56.939Z,-5.50
2024-01-18T02:38:24.257Z,-5.50
2024-01-18T02:40:51.435Z,-5.50
2024-01-18T02:43:18.650Z,-5.50
2024-01-18T02:45:46.360Z,-5.60
2024-01-18T02:48:13.690Z,-5.60
2024-01-18T02:50:43.083Z,-5.60
2024-01-18T02:53:10.504Z,-5.60
2024-01-18T02:55:37.752Z,-5.60
2024-01-18T02:58:05.997Z,-5.60
2024-01-18T03:00:33.292Z,-5.60
2024-01-18T03:03:00.589Z,-5.60
2024-01-18T03:05:27.809Z,-5.60
2024-01-18T03:07:55.034Z,-5.60
2024-01-18T03:10:23.578Z,-5.50
2024-01-18T03:12:50.769Z,-5.50
2024-01-18T03:15:18.094Z,-5.60
2024-01-18T03:17:46.215Z,-5.50
2024-01-18T03:20:13.337Z,-5.60
2024-01-18T03:22:41.940Z,-5.50
2024-01-18T03:25:09.516Z,-5.50
2024-01-18T03:27:36.980Z,-5.50
2024-01-18T03:30:04.571Z,-5.50
2024-01-18T03:32:31.818Z,-5.50
2024-01-18T03:34:59.083Z,-5.50
2024-01-18T03:37:27.389Z,-5.50
2024-01-18T03:39:54.535Z,-5.50
2024-01-18T03:42:21.743Z,-5.60
2024-01-18T03:44:49.019Z,-5.50
2024-01-18T03:47:16.206Z,-5.50
2024-01-18T03:49:44.793Z,-5.50
2024-01-18T03:52:13.500Z,-5.50
2024-01-18T03:54:40.961Z,-5.50
2024-01-18T03:57:08.352Z,-5.50
2024-01-18T03:59:35.533Z,-5.50
2024-01-18T04:02:02.682Z,-5.50
2024-01-18T04:04:30.042Z,-5.50
2024-01-18T04:06:57.290Z,-5.50
2024-01-18T04:09:24.461Z,-5.50
2024-01-18T04:11:51.870Z,-5.50
2024-01-18T04:14:18.998Z,-5.50
2024-01-18T04:16:46.128Z,-5.40
2024-01-18T04:19:13.413Z,-5.40
2024-01-18T04:21:40.961Z,-5.40
2024-01-18T04:24:08.334Z,-5.40
2024-01-18T04:26:35.732Z,-5.40
2024-01-18T04:29:03.758Z,-5.30
2024-01-18T04:31:30.858Z,-5.40
2024-01-18T04:33:58.138Z,-5.30
2024-01-18T04:36:25.379Z,-5.30
2024-01-18T04:38:53.021Z,-5.30
2024-01-18T04:41:20.181Z,-5.30
2024-01-18T04:43:47.310Z,-5.30
2024-01-18T04:46:14.475Z,-5.30
2024-01-18T04:48:42.042Z,-5.30
2024-01-18T04:51:09.262Z,-5.20
2024-01-18T04:53:36.504Z,-5.30
2024-01-18T04:56:03.919Z,-5.30
2024-01-18T04:58:31.359Z,-5.30
2024-01-18T05:00:58.653Z,-5.30
2024-01-18T05:03:26.684Z,-5.30
2024-01-18T05:05:54.262Z,-5.30
2024-01-18T05:08:21.801Z,-5.30
2024-01-18T05:10:49.089Z,-5.30
2024-01-18T05:13:16.437Z,-5.20
2024-01-18T05:15:43.742Z,-5.20
2024-01-18T05:18:11.077Z,-5.20
2024-01-18T05:20:38.661Z,-5.20
2024-01-18T05:23:07.400Z,-5.10
2024-01-18T05:25:34.670Z,-5.10
2024-01-18T05:28:01.971Z,-5.10
2024-01-18T05:30:29.254Z,-5.10
2024-01-18T05:32:56.552Z,-5.10
2024-01-18T05:35:23.755Z,-5.10
2024-01-18T05:37:50.989Z,-5.10
2024-01-18T05:40:18.695Z,-5.10
2024-01-18T05:42:45.929Z,-5.10
2024-01-18T05:45:13.191Z,-5.10
2024-01-18T05:47:41.240Z,-5.10
2024-01-18T05:50:09.983Z,-5.10
2024-01-18T05:52:37.820Z,-5.10
2024-01-18T05:55:05.842Z,-5.10
2024-01-18T05:57:34.267Z,-5.00
2024-01-18T06:00:01.421Z,-5.10
2024-01-18T06:02:28.713Z,-5.10
2024-01-18T06:04:55.893Z,-5.00
2024-01-18T06:07:23.607Z,-5.00
2024-01-18T06:09:51.022Z,-5.00
2024-01-18T06:12:18.965Z,-5.00
2024-01-18T06:14:46.310Z,-5.00
2024-01-18T06:17:13.516Z,-5.00
2024-01-18T06:19:40.842Z,-5.00
2024-01-18T06:22:08.091Z,-5.00
2024-01-18T06:24:35.489Z,-5.00
2024-01-18T06:27:03.095Z,-5.00
2024-01-18T06:29:32.029Z,-5.00
2024-01-18T06:31:59.331Z,-5.00
2024-01-18T06:34:26.736Z,-5.00
2024-01-18T06:36:54.160Z,-5.00
2024-01-18T06:39:21.259Z,-5.00
2024-01-18T06:41:48.916Z,-4.90
2024-01-18T06:44:16.109Z,-4.90
2024-01-18T06:46:43.341Z,-4.90
2024-01-18T06:49:11.577Z,-4.90
2024-01-18T06:51:40.878Z,-4.90
2024-01-18T06:54:08.426Z,-4.90
2024-01-18T06:56:35.601Z,-4.90
2024-01-18T06:59:03.568Z,-4.90
2024-01-18T07:01:30.966Z,-4.90
2024-01-18T07:03:58.407Z,-4.90
2024-01-18T07:06:25.639Z,-4.90
2024-01-18T07:08:52.789Z,-4.90
2024-01-18T07:11:19.954Z,-4.90
2024-01-18T07:13:47.191Z,-5.00
2024-01-18T07:16:14.583Z,-5.00
2024-01-18T07:18:42.015Z,-4.90
2024-01-18T07:21:09.237Z,-4.90
2024-01-18T07:23:36.383Z,-4.90
2024-01-18T07:26:03.745Z,-4.90
2024-01-18T07:28:30.960Z,-4.90
2024-01-18T07:30:58.678Z,-4.90
2024-01-18T07:33:25.963Z,-4.90
2024-01-18T07:35:53.141Z,-4.90
2024-01-18T07:38:20.461Z,-4.90
2024-01-18T07:40:47.558Z,-4.80
2024-01-18T07:43:14.742Z,-4.80
2024-01-18T07:45:42.137Z,-4.80
2024-01-18T07:48:09.517Z,-4.80
2024-01-18T07:50:37.563Z,-4.80
2024-01-18T07:53:05.756Z,-4.70
2024-01-18T07:55:32.987Z,-4.70
2024-01-18T07:58:00.348Z,-4.70
2024-01-18T08:00:27.522Z,-4.70
2024-01-18T08:02:54.861Z,-4.70
2024-01-18T08:05:22.910Z,-4.60
2024-01-18T08:07:50.530Z,-4.60
2024-01-18T08:10:17.954Z,-4.50
2024-01-18T08:12:46.093Z,-4.50
2024-01-18T08:15:14.223Z,-4.50
2024-01-18T08:17:43.272Z,-4.50
2024-01-18T08:20:15.296Z,-4.50
2024-01-18T08:22:43.671Z,-4.40
2024-01-18T08:25:14.670Z,-4.40
2024-01-18T08:27:45.764Z,-4.30
2024-01-18T08:30:13.491Z,-4.30
2024-01-18T08:32:40.871Z,-4.40
2024-01-18T08:35:08.972Z,-4.50
2024-01-18T08:37:40.093Z,-4.40
2024-01-18T08:40:08.245Z,-4.40
2024-01-18T08:42:37.046Z,-4.40
2024-01-18T08:45:05.502Z,-4.30
2024-01-18T08:47:33.855Z,-4.40
2024-01-18T08:50:00.912Z,-4.40
2024-01-18T08:52:28.151Z,-4.50
2024-01-18T08:54:55.463Z,-4.50
2024-01-18T08:57:22.712Z,-4.30
2024-01-18T08:59:49.871Z,-4.20
2024-01-18T09:02:23.699Z,-4.20
2024-01-18T09:04:52.884Z,-4.10
2024-01-18T09:07:21.047Z,-4.10
2024-01-18T09:09:48.824Z,-4.10
2024-01-18T09:12:17.246Z,-4.00
2024-01-18T09:14:45.920Z,-4.00
2024-01-18T09:17:13.136Z,-4.00
2024-01-18T09:19:40.464Z,-4.00
2024-01-18T09:22:07.965Z,-3.90
2024-01-18T09:24:35.099Z,-3.90
2024-01-18T09:27:02.385Z,-3.90
2024-01-18T09:29:29.509Z,-3.90
2024-01-18T09:31:58.372Z,-3.90
2024-01-18T09:34:25.637Z,-4.00
2024-01-18T09:36:52.950Z,-4.00
2024-01-18T09:39:20.221Z,-3.90
2024-01-18T09:41:52.568Z,-3.90
2024-01-18T09:44:31.750Z,-4.00
2024-01-18T09:47:03.228Z,-4.00
2024-01-18T09:49:34.837Z,-4.00
2024-01-18T09:52:02.589Z,-4.00
2024-01-18T09:54:30.639Z,-4.00
2024-01-18T09:57:01.898Z,-4.00
2024-01-18T09:59:29.832Z,-3.90
2024-01-18T10:01:58.187Z,-4.00
2024-01-18T10:04:29.686Z,-4.00
2024-01-18T10:06:58.242Z,-4.10
2024-01-18T10:09:27.214Z,-4.00
2024-01-18T10:11:54.981Z,-3.90
2024-01-18T10:14:43.607Z,-3.80
2024-01-18T10:17:31.418Z,-3.80
2024-01-18T10:19:59.439Z,-3.80
2024-01-18T10:22:26.756Z,-3.80
2024-01-18T10:24:54.189Z,-3.80
2024-01-18T10:27:26.922Z,-3.70
2024-01-18T10:29:54.199Z,-3.80
2024-01-18T10:32:21.372Z,-3.70
2024-01-18T10:34:49.040Z,-3.60
2024-01-18T10:37:19.608Z,-3.70
2024-01-18T10:39:48.588Z,-3.80
2024-01-18T10:42:16.459Z,-3.60
2024-01-18T10:44:45.172Z,-3.60
2024-01-18T10:47:14.492Z,-3.70
2024-01-18T10:49:42.312Z,-3.70
2024-01-18T10:52:11.317Z,-3.60
2024-01-18T10:54:44.524Z,-3.60
2024-01-18T10:57:17.776Z,-3.50
2024-01-18T10:59:44.978Z,-3.40
2024-01-18T11:02:12.717Z,-3.50
2024-01-18T11:04:40.250Z,-3.50
2024-01-18T11:07:08.038Z,-3.50
2024-01-18T11:09:38.056Z,-3.60
2024-01-18T11:12:06.714Z,-3.60
2024-01-18T11:14:34.811Z,-3.60
2024-01-18T11:17:18.220Z,-3.50
2024-01-18T11:19:46.968Z,-3.40
2024-01-18T11:22:32.484Z,-3.30
2024-01-18T11:25:07.245Z,-3.20
2024-01-18T11:27:42.018Z,-3.10
2024-01-18T11:30:14.768Z,-3.00
2024-01-18T11:32:42.385Z,-3.00
2024-01-18T11:35:14.749Z,-3.00
2024-01-18T11:37:42.252Z,-3.00
2024-01-18T11:40:12.146Z,-3.00
2024-01-18T11:42:44.794Z,-3.00
2024-01-18T11:45:18.432Z,-3.00
2024-01-18T11:47:46.601Z,-3.00
2024-01-18T11:50:14.590Z,-2.80
2024-01-18T11:52:46.061Z,-2.80
2024-01-18T11:55:15.396Z,-2.70
2024-01-18T11:57:42.834Z,-2.70
2024-01-18T12:00:13.607Z,-2.80
2024-01-18T12:02:43.932Z,-2.60
2024-01-18T12:05:11.791Z,-2.70
2024-01-18T12:07:45.218Z,-2.60
2024-01-18T12:10:12.842Z,-2.50
2024-01-18T12:12:45.194Z,-2.50
2024-01-18T12:15:19.450Z,-2.50
2024-01-18T12:17:48.212Z,-2.70
2024-01-18T12:20:16.827Z,-2.80
2024-01-18T12:22:44.869Z,-2.80
2024-01-18T12:25:14.329Z,-2.90
2024-01-18T12:27:42.510Z,-3.00
2024-01-18T12:30:11.226Z,-3.00
2024-01-18T12:32:38.465Z,-3.00
2024-01-18T12:35:06.562Z,-3.00
2024-01-18T12:37:33.734Z,-3.00
2024-01-18T12:40:01.033Z,-3.00
2024-01-18T12:42:28.286Z,-3.10
2024-01-18T12:44:59.091Z,-3.10
2024-01-18T12:47:26.289Z,-3.00
2024-01-18T12:49:56.782Z,-3.00
2024-01-18T12:52:32.507Z,-3.00
2024-01-18T12:55:00.992Z,-3.00
2024-01-18T12:57:28.759Z,-3.10
2024-01-18T12:59:56.353Z,-3.10
2024-01-18T13:02:26.855Z,-3.20
2024-01-18T13:04:54.407Z,-3.20
2024-01-18T13:07:21.836Z,-3.20
2024-01-18T13:09:49.288Z,-3.20
2024-01-18T13:12:17.441Z,-3.10
2024-01-18T13:14:47.232Z,-3.20
2024-01-18T13:17:21.341Z,-3.10
2024-01-18T13:19:54.655Z,-3.10
2024-01-18T13:22:22.096Z,-3.10
2024-01-18T13:24:49.309Z,-3.20
2024-01-18T13:27:16.534Z,-3.20
2024-01-18T13:29:43.884Z,-3.10
2024-01-18T13:32:11.037Z,-3.10
2024-01-18T13:34:39.058Z,-3.10
2024-01-18T13:37:12.752Z,-3.20
2024-01-18T13:39:43.356Z,-3.20
2024-01-18T13:42:10.505Z,-3.20
2024-01-18T13:44:37.698Z,-3.20
2024-01-18T13:47:05.307Z,-3.10
2024-01-18T13:49:32.556Z,-3.20
2024-01-18T13:51:59.977Z,-3.20
2024-01-18T13:54:27.371Z,-3.20
2024-01-18T13:56:54.693Z,-3.20
2024-01-18T13:59:22.035Z,-3.20
2024-01-18T14:01:49.771Z,-3.20
2024-01-18T14:04:17.148Z,-3.20
2024-01-18T14:06:44.723Z,-3.20
2024-01-18T14:09:12.008Z,-3.30
2024-01-18T14:11:39.152Z,-3.30
2024-01-18T14:14:06.252Z,-3.40
2024-01-18T14:16:33.500Z,-3.40
2024-01-18T14:19:00.810Z,-3.40
2024-01-18T14:21:28.743Z,-3.40
2024-01-18T14:23:56.559Z,-3.50
2024-01-18T14:26:23.757Z,-3.50
2024-01-18T14:28:50.915Z,-3.50
2024-01-18T14:31:18.125Z,-3.50
2024-01-18T14:33:45.329Z,-3.50
2024-01-18T14:36:12.675Z,-3.60
2024-01-18T14:38:39.783Z,-3.60
2024-01-18T14:41:06.924Z,-3.60
2024-01-18T14:43:34.132Z,-3.60
2024-01-18T14:46:01.428Z,-3.60
2024-01-18T14:48:28.735Z,-3.60
2024-01-18T14:50:55.928Z,-3.60
2024-01-18T14:53:23.082Z,-3.60
2024-01-18T14:55:50.178Z,-3.70
2024-01-18T14:58:17.498Z,-3.70
2024-01-18T15:00:45.164Z,-3.70
2024-01-18T15:03:12.396Z,-3.70
2024-01-18T15:05:40.803Z,-3.70
2024-01-18T15:08:08.405Z,-3.70
2024-01-18T15:10:36.087Z,-3.70
2024-01-18T15:13:03.300Z,-3.70
2024-01-18T15:15:30.924Z,-3.70
2024-01-18T15:17:58.532Z,-3.70
2024-01-18T15:20:26.181Z,-3.70
2024-01-18T15:22:53.629Z,-3.70
2024-01-18T15:25:20.902Z,-3.70
2024-01-18T15:27:48.043Z,-3.70
2024-01-18T15:30:15.660Z,-3.70
2024-01-18T15:32:42.952Z,-3.70
2024-01-18T15:35:11.810Z,-3.70
2024-01-18T15:37:39.371Z,-3.70
2024-01-18T15:40:07.646Z,-3.70
2024-01-18T15:42:35.258Z,-3.70
2024-01-18T15:45:02.674Z,-3.70
2024-01-18T15:47:29.876Z,-3.70
2024-01-18T15:49:57.239Z,-3.70
2024-01-18T15:52:24.659Z,-3.70
2024-01-18T15:54:52.077Z,-3.70
2024-01-18T15:57:19.418Z,-3.70
2024-01-18T15:59:46.747Z,-3.70
2024-01-18T16:02:13.853Z,-3.70
2024-01-18T16:04:41.097Z,-3.70
2024-01-18T16:07:08.367Z,-3.70
2024-01-18T16:09:35.682Z,-3.70
2024-01-18T16:12:04.818Z,-3.70
2024-01-18T16:14:32.019Z,-3.70
2024-01-18T16:17:00.057Z,-3.70
2024-01-18T16:19:28.435Z,-3.80
2024-01-18T16:21:55.724Z,-3.80
2024-01-18T16:24:23.104Z,-3.80
2024-01-18T16:26:50.704Z,-3.90
2024-01-18T16:29:17.798Z,-3.90
2024-01-18T16:31:44.915Z,-3.90
2024-01-18T16:34:12.496Z,-3.90
2024-01-18T16:36:40.007Z,-3.90
2024-01-18T16:39:07.438Z,-3.90
2024-01-18T16:41:34.822Z,-3.90
2024-01-18T16:44:02.793Z,-3.90
2024-01-18T16:46:32.248Z,-3.90
2024-01-18T16:49:00.634Z,-3.90
2024-01-18T16:51:28.281Z,-3.90
2024-01-18T16:53:55.636Z,-4.00
2024-01-18T16:56:22.915Z,-3.90
2024-01-18T16:58:50.076Z,-3.90
2024-01-18T17:01:18.032Z,-3.90
2024-01-18T17:03:45.208Z,-3.90
2024-01-18T17:06:14.826Z,-3.90
2024-01-18T17:08:42.340Z,-3.90
2024-01-18T17:11:19.933Z,-3.90
2024-01-18T17:13:48.650Z,-3.90
2024-01-18T17:16:15.943Z,-3.90
2024-01-18T17:18:43.064Z,-3.90
2024-01-18T17:21:10.534Z,-3.80
2024-01-18T17:23:37.711Z,-3.80
2024-01-18T17:26:05.432Z,-3.80
2024-01-18T17:28:36.046Z,-3.80
2024-01-18T17:31:03.345Z,-3.80
2024-01-18T17:33:30.581Z,-3.80
2024-01-18T17:35:58.052Z,-3.80
2024-01-18T17:38:25.274Z,-3.80
2024-01-18T17:40:52.576Z,-3.90
2024-01-18T17:43:20.540Z,-3.90
2024-01-18T17:45:47.793Z,-3.80
2024-01-18T17:48:15.282Z,-3.80
2024-01-18T17:50:44.656Z,-3.90
2024-01-18T17:53:11.924Z,-3.90
2024-01-18T17:55:39.456Z,-3.90
2024-01-18T17:58:06.758Z,-3.90
2024-01-18T18:00:39.586Z,-3.90
2024-01-18T18:03:07.560Z,-3.80
2024-01-18T18:05:34.937Z,-3.80
2024-01-18T18:08:02.528Z,-3.80
2024-01-18T18:10:30.345Z,-3.90
2024-01-18T18:12:57.501Z,-3.90
2024-01-18T18:15:25.371Z,-3.80
2024-01-18T18:17:52.847Z,-3.80
2024-01-18T18:20:20.055Z,-3.90
2024-01-18T18:22:47.222Z,-3.90
2024-01-18T18:25:14.740Z,-3.90
2024-01-18T18:27:43.191Z,-3.90
2024-01-18T18:30:16.723Z,-3.90
2024-01-18T18:32:49.862Z,-3.90
2024-01-18T18:35:17.843Z,-3.90
2024-01-18T18:37:45.520Z,-3.80
2024-01-18T18:40:13.977Z,-3.80
2024-01-18T18:42:41.070Z,-3.80
2024-01-18T18:45:09.505Z,-3.80
2024-01-18T18:47:36.617Z,-3.80
2024-01-18T18:50:03.885Z,-3.80
2024-01-18T18:52:34.569Z,-3.80
2024-01-18T18:55:01.780Z,-3.80
2024-01-18T18:57:28.942Z,-3.80
2024-01-18T18:59:56.204Z,-3.80
2024-01-18T19:02:23.425Z,-3.80
2024-01-18T19:04:50.747Z,-3.90
2024-01-18T19:07:18.485Z,-3.90
2024-01-18T19:09:45.631Z,-3.90
2024-01-18T19:12:12.743Z,-3.80
2024-01-18T19:14:40.117Z,-3.80
2024-01-18T19:17:07.356Z,-3.90
2024-01-18T19:19:34.628Z,-3.90
2024-01-18T19:22:01.858Z,-3.90
2024-01-18T19:24:29.082Z,-3.90
2024-01-18T19:26:56.300Z,-3.90
2024-01-18T19:29:23.724Z,-3.90
2024-01-18T19:31:52.019Z,-4.00
2024-01-18T19:34:19.496Z,-4.00
2024-01-18T19:36:46.648Z,-4.00
2024-01-18T19:39:15.249Z,-4.00
2024-01-18T19:41:42.429Z,-4.00
2024-01-18T19:44:09.850Z,-4.00
2024-01-18T19:46:36.996Z,-4.00
2024-01-18T19:49:04.922Z,-4.00
2024-01-18T19:51:32.288Z,-4.00
2024-01-18T19:53:59.471Z,-4.00
2024-01-18T19:56:26.645Z,-4.00
2024-01-18T19:58:53.805Z,-4.00
2024-01-18T20:01:21.138Z,-4.00
2024-01-18T20:03:48.316Z,-4.00
2024-01-18T20:06:15.748Z,-4.00
2024-01-18T20:08:43.982Z,-4.00
2024-01-18T20:11:11.223Z,-4.10
2024-01-18T20:13:38.380Z,-4.10
2024-01-18T20:16:05.868Z,-4.10
2024-01-18T20:18:33.073Z,-4.10
2024-01-18T20:21:01.579Z,-4.10
2024-01-18T20:23:29.036Z,-4.10
2024-01-18T20:26:01.057Z,-4.10
2024-01-18T20:28:28.931Z,-4.10
2024-01-18T20:30:56.458Z,-4.20
2024-01-18T20:33:24.366Z,-4.20
2024-01-18T20:35:51.964Z,-4.10
2024-01-18T20:38:19.273Z,-4.20
2024-01-18T20:40:46.601Z,-4.20
2024-01-18T20:43:13.805Z,-4.20
2024-01-18T20:45:41.112Z,-4.20
2024-01-18T20:48:08.600Z,-4.20
2024-01-18T20:50:35.824Z,-4.30
2024-01-18T20:53:02.979Z,-4.30
2024-01-18T20:55:30.221Z,-4.30
2024-01-18T20:57:58.155Z,-4.30
2024-01-18T21:00:32.369Z,-4.30
2024-01-18T21:03:03.093Z,-4.30
2024-01-18T21:05:30.219Z,-4.30
2024-01-18T21:07:58.607Z,-4.30
2024-01-18T21:10:25.866Z,-4.30
2024-01-18T21:12:53.003Z,-4.40
2024-01-18T21:15:21.846Z,-4.40
2024-01-18T21:17:50.355Z,-4.40
2024-01-18T21:20:17.930Z,-4.40
2024-01-18T21:22:45.187Z,-4.30
2024-01-18T21:25:12.287Z,-4.30
2024-01-18T21:27:39.469Z,-4.30
2024-01-18T21:30:07.303Z,-4.30
2024-01-18T21:32:35.073Z,-4.40
2024-01-18T21:35:02.381Z,-4.40
2024-01-18T21:37:29.685Z,-4.30
2024-01-18T21:39:56.945Z,-4.30
2024-01-18T21:42:24.090Z,-4.30
2024-01-18T21:44:51.353Z,-4.30
2024-01-18T21:47:18.824Z,-4.30
2024-01-18T21:49:46.622Z,-4.30
2024-01-18T21:52:14.114Z,-4.40
2024-01-18T21:54:41.390Z,-4.40
2024-01-18T21:57:08.893Z,-4.40
2024-01-18T21:59:41.177Z,-4.40
2024-01-18T22:02:12.503Z,-4.40
2024-01-18T22:04:40.494Z,-4.40
2024-01-18T22:07:08.159Z,-4.40
2024-01-18T22:09:41.770Z,-4.40
2024-01-18T22:12:12.042Z,-4.50
2024-01-18T22:14:39.742Z,-4.50
2024-01-18T22:17:07.296Z,-4.50
2024-01-18T22:19:43.170Z,-4.50
2024-01-18T22:22:19.250Z,-4.50
2024-01-18T22:24:46.635Z,-4.50
2024-01-18T22:27:14.009Z,-4.50
2024-01-18T22:29:42.678Z,-4.60
2024-01-18T22:32:10.131Z,-4.60
2024-01-18T22:34:38.289Z,-4.50
2024-01-18T22:37:05.596Z,-4.60
2024-01-18T22:39:32.834Z,-4.60
2024-01-18T22:42:00.099Z,-4.60
2024-01-18T22:44:27.225Z,-4.60
2024-01-18T22:46:54.425Z,-4.60
2024-01-18T22:49:21.757Z,-4.60
2024-01-18T22:51:49.012Z,-4.60
2024-01-18T22:54:16.265Z,-4.60
2024-01-18T22:56:45.730Z,-4.60
2024-01-18T22:59:13.015Z,-4.70
2024-01-18T23:01:40.149Z,-4.60
2024-01-18T23:04:07.386Z,-4.60
2024-01-18T23:06:35.752Z,-4.60
2024-01-18T23:09:02.947Z,-4.60
2024-01-18T23:11:30.170Z,-4.60
2024-01-18T23:13:58.865Z,-4.70
2024-01-18T23:16:26.870Z,-4.70
2024-01-18T23:18:54.573Z,-4.70
2024-01-18T23:21:21.828Z,-4.70
2024-01-18T23:23:51.115Z,-4.70
2024-01-18T23:26:19.033Z,-4.80
2024-01-18T23:28:46.290Z,-4.70
2024-01-18T23:31:13.661Z,-4.80
2024-01-18T23:33:41.011Z,-4.80
2024-01-18T23:36:08.585Z,-4.80
2024-01-18T23:38:35.788Z,-4.80
2024-01-18T23:41:02.983Z,-4.80
2024-01-18T23:43:30.130Z,-4.80
2024-01-18T23:45:57.509Z,-4.80
2024-01-18T23:48:24.714Z,-4.80
2024-01-18T23:50:52.095Z,-4.80
2024-01-18T23:53:19.350Z,-4.80
2024-01-18T23:55:46.631Z,-4.80
2024-01-18T23:58:13.972Z,-4.80
